sensor_id;sensor_type;location;lat;lon;timestamp;pressure;altitude;pressure_sealevel;temperature;humidity
63343;BME280;49465;57.664;39.686;2023-02-08T00:01:15;102709.59;;;-2.56;52.75
63343;BME280;49465;57.664;39.686;2023-02-08T00:03:56;102708.63;;;-2.29;52.48
63343;BME280;49465;57.664;39.686;2023-02-08T00:06:28;102703.41;;;-2.32;52.83
63343;BME280;49465;57.664;39.686;2023-02-08T00:08:57;102705.88;;;-2.35;53.36
63343;BME280;49465;57.664;39.686;2023-02-08T00:11:31;102707.78;;;-2.89;54.49
63343;BME280;49465;57.664;39.686;2023-02-08T00:14:03;102715.94;;;-3.02;54.66
63343;BME280;49465;57.664;39.686;2023-02-08T00:16:34;102709.66;;;-2.53;53.56
63343;BME280;49465;57.664;39.686;2023-02-08T00:19:18;102701.47;;;-2.40;53.14
63343;BME280;49465;57.664;39.686;2023-02-08T00:21:44;102698.66;;;-3.08;54.41
63343;BME280;49465;57.664;39.686;2023-02-08T00:24:21;102690.44;;;-2.67;53.96
63343;BME280;49465;57.664;39.686;2023-02-08T00:26:54;102691.34;;;-2.95;54.78
63343;BME280;49465;57.664;39.686;2023-02-08T00:29:29;102696.41;;;-2.97;55.05
63343;BME280;49465;57.664;39.686;2023-02-08T00:31:58;102679.19;;;-3.01;54.80
63343;BME280;49465;57.664;39.686;2023-02-08T00:34:24;102684.34;;;-2.41;53.42
63343;BME280;49465;57.664;39.686;2023-02-08T00:36:56;102675.19;;;-2.91;54.42
63343;BME280;49465;57.664;39.686;2023-02-08T00:39:26;102675.94;;;-2.35;53.95
63343;BME280;49465;57.664;39.686;2023-02-08T00:41:57;102678.03;;;-2.20;53.02
63343;BME280;49465;57.664;39.686;2023-02-08T00:44:26;102683.63;;;-2.03;53.11
63343;BME280;49465;57.664;39.686;2023-02-08T00:46:52;102682.72;;;-2.37;53.29
63343;BME280;49465;57.664;39.686;2023-02-08T00:49:22;102681.78;;;-2.07;52.36
63343;BME280;49465;57.664;39.686;2023-02-08T00:51:54;102681.16;;;-1.99;52.22
63343;BME280;49465;57.664;39.686;2023-02-08T00:54:20;102670.78;;;-2.35;52.97
63343;BME280;49465;57.664;39.686;2023-02-08T00:56:52;102670.84;;;-2.32;53.65
63343;BME280;49465;57.664;39.686;2023-02-08T00:59:21;102672.97;;;-2.17;52.90
63343;BME280;49465;57.664;39.686;2023-02-08T01:01:49;102661.72;;;-2.83;54.07
63343;BME280;49465;57.664;39.686;2023-02-08T01:04:21;102664.81;;;-2.34;53.50
63343;BME280;49465;57.664;39.686;2023-02-08T01:06:47;102663.34;;;-2.24;52.90
63343;BME280;49465;57.664;39.686;2023-02-08T01:09:19;102659.34;;;-2.76;54.47
63343;BME280;49465;57.664;39.686;2023-02-08T01:11:48;102653.38;;;-2.12;52.55
63343;BME280;49465;57.664;39.686;2023-02-08T01:14:20;102651.22;;;-2.62;54.30
63343;BME280;49465;57.664;39.686;2023-02-08T01:16:52;102654.69;;;-2.90;55.12
63343;BME280;49465;57.664;39.686;2023-02-08T01:19:22;102650.00;;;-2.11;53.42
63343;BME280;49465;57.664;39.686;2023-02-08T01:21:54;102649.88;;;-2.15;53.51
63343;BME280;49465;57.664;39.686;2023-02-08T01:24:26;102643.44;;;-2.00;53.13
63343;BME280;49465;57.664;39.686;2023-02-08T01:26:58;102644.00;;;-2.10;53.05
63343;BME280;49465;57.664;39.686;2023-02-08T01:29:27;102624.91;;;-1.85;52.69
63343;BME280;49465;57.664;39.686;2023-02-08T01:32:02;102631.06;;;-2.78;54.28
63343;BME280;49465;57.664;39.686;2023-02-08T01:34:33;102623.75;;;-1.97;52.55
63343;BME280;49465;57.664;39.686;2023-02-08T01:37:07;102619.22;;;-2.08;53.18
63343;BME280;49465;57.664;39.686;2023-02-08T01:39:39;102617.19;;;-2.20;53.03
63343;BME280;49465;57.664;39.686;2023-02-08T01:42:16;102617.09;;;-1.89;52.70
63343;BME280;49465;57.664;39.686;2023-02-08T01:45:22;102625.03;;;-2.15;53.40
63343;BME280;49465;57.664;39.686;2023-02-08T01:48:05;102624.56;;;-2.65;54.54
63343;BME280;49465;57.664;39.686;2023-02-08T01:51:01;102618.50;;;-2.02;52.86
63343;BME280;49465;57.664;39.686;2023-02-08T01:53:36;102611.72;;;-1.99;52.67
63343;BME280;49465;57.664;39.686;2023-02-08T01:56:14;102609.84;;;-2.06;53.46
63343;BME280;49465;57.664;39.686;2023-02-08T01:58:52;102598.34;;;-1.85;52.32
63343;BME280;49465;57.664;39.686;2023-02-08T02:01:27;102599.91;;;-1.90;52.60
63343;BME280;49465;57.664;39.686;2023-02-08T02:04:07;102601.22;;;-2.41;54.26
63343;BME280;49465;57.664;39.686;2023-02-08T02:06:41;102598.56;;;-2.11;53.19
63343;BME280;49465;57.664;39.686;2023-02-08T02:09:19;102600.19;;;-2.14;53.54
63343;BME280;49465;57.664;39.686;2023-02-08T02:11:50;102588.66;;;-1.95;53.26
63343;BME280;49465;57.664;39.686;2023-02-08T02:14:26;102600.69;;;-2.63;54.24
63343;BME280;49465;57.664;39.686;2023-02-08T02:17:03;102589.53;;;-2.30;53.83
63343;BME280;49465;57.664;39.686;2023-02-08T02:19:51;102590.78;;;-2.47;54.55
63343;BME280;49465;57.664;39.686;2023-02-08T02:33:57;102583.25;;;-2.06;53.37
63343;BME280;49465;57.664;39.686;2023-02-08T02:41:53;102567.25;;;-1.94;53.70
63343;BME280;49465;57.664;39.686;2023-02-08T02:45:09;102567.75;;;-1.74;52.93
63343;BME280;49465;57.664;39.686;2023-02-08T02:48:07;102561.91;;;-2.39;54.30
63343;BME280;49465;57.664;39.686;2023-02-08T02:50:49;102551.63;;;-2.04;53.71
63343;BME280;49465;57.664;39.686;2023-02-08T02:53:31;102551.44;;;-1.73;52.82
63343;BME280;49465;57.664;39.686;2023-02-08T02:56:23;102546.47;;;-1.66;52.54
63343;BME280;49465;57.664;39.686;2023-02-08T02:59:00;102545.88;;;-1.93;52.97
63343;BME280;49465;57.664;39.686;2023-02-08T03:01:33;102543.56;;;-1.81;53.48
63343;BME280;49465;57.664;39.686;2023-02-08T03:04:46;102547.66;;;-2.59;54.50
63343;BME280;49465;57.664;39.686;2023-02-08T03:07:18;102542.31;;;-1.61;52.54
63343;BME280;49465;57.664;39.686;2023-02-08T03:15:38;102534.44;;;-1.67;52.95
63343;BME280;49465;57.664;39.686;2023-02-08T03:21:11;102532.50;;;-1.77;52.86
63343;BME280;49465;57.664;39.686;2023-02-08T03:31:59;102550.38;;;-2.53;54.63
63343;BME280;49465;57.664;39.686;2023-02-08T03:34:45;102548.50;;;-1.90;53.64
63343;BME280;49465;57.664;39.686;2023-02-08T03:37:38;102540.81;;;-2.25;54.43
63343;BME280;49465;57.664;39.686;2023-02-08T03:40:20;102528.94;;;-2.55;55.59
63343;BME280;49465;57.664;39.686;2023-02-08T03:42:53;102540.34;;;-2.44;55.80
63343;BME280;49465;57.664;39.686;2023-02-08T03:45:32;102535.44;;;-1.98;54.34
63343;BME280;49465;57.664;39.686;2023-02-08T03:48:06;102529.91;;;-1.79;53.79
63343;BME280;49465;57.664;39.686;2023-02-08T03:50:43;102533.34;;;-2.51;55.74
63343;BME280;49465;57.664;39.686;2023-02-08T03:53:18;102530.16;;;-2.06;54.73
63343;BME280;49465;57.664;39.686;2023-02-08T03:55:51;102540.13;;;-1.82;54.08
63343;BME280;49465;57.664;39.686;2023-02-08T03:58:46;102538.28;;;-1.87;53.93
63343;BME280;49465;57.664;39.686;2023-02-08T04:01:31;102533.78;;;-2.32;55.19
63343;BME280;49465;57.664;39.686;2023-02-08T04:04:04;102530.63;;;-1.86;53.96
63343;BME280;49465;57.664;39.686;2023-02-08T04:06:39;102529.25;;;-1.70;53.87
63343;BME280;49465;57.664;39.686;2023-02-08T04:09:10;102519.59;;;-1.80;54.00
63343;BME280;49465;57.664;39.686;2023-02-08T04:11:42;102519.88;;;-2.41;55.17
63343;BME280;49465;57.664;39.686;2023-02-08T04:14:17;102514.72;;;-2.06;54.80
63343;BME280;49465;57.664;39.686;2023-02-08T04:16:49;102519.91;;;-2.74;56.42
63343;BME280;49465;57.664;39.686;2023-02-08T04:19:18;102519.25;;;-1.95;54.71
63343;BME280;49465;57.664;39.686;2023-02-08T04:21:56;102516.09;;;-2.55;55.72
63343;BME280;49465;57.664;39.686;2023-02-08T04:24:28;102520.69;;;-2.07;55.23
63343;BME280;49465;57.664;39.686;2023-02-08T04:27:00;102523.72;;;-1.87;54.45
63343;BME280;49465;57.664;39.686;2023-02-08T04:29:37;102526.22;;;-2.61;56.18
63343;BME280;49465;57.664;39.686;2023-02-08T04:32:09;102522.34;;;-2.09;55.23
63343;BME280;49465;57.664;39.686;2023-02-08T04:34:43;102524.56;;;-1.86;54.32
63343;BME280;49465;57.664;39.686;2023-02-08T04:37:12;102509.72;;;-2.00;54.80
63343;BME280;49465;57.664;39.686;2023-02-08T04:39:46;102504.50;;;-2.03;54.96
63343;BME280;49465;57.664;39.686;2023-02-08T04:42:26;102499.25;;;-2.44;56.46
63343;BME280;49465;57.664;39.686;2023-02-08T04:45:05;102508.47;;;-2.17;55.40
63343;BME280;49465;57.664;39.686;2023-02-08T04:47:34;102512.63;;;-2.22;55.42
63343;BME280;49465;57.664;39.686;2023-02-08T04:50:03;102514.28;;;-1.88;54.85
63343;BME280;49465;57.664;39.686;2023-02-08T04:52:32;102512.78;;;-2.14;55.09
63343;BME280;49465;57.664;39.686;2023-02-08T04:55:04;102533.06;;;-2.62;56.80
63343;BME280;49465;57.664;39.686;2023-02-08T04:57:31;102521.56;;;-2.06;54.73
63343;BME280;49465;57.664;39.686;2023-02-08T05:00:00;102519.06;;;-2.03;55.52
63343;BME280;49465;57.664;39.686;2023-02-08T05:02:34;102515.59;;;-2.05;55.14
63343;BME280;49465;57.664;39.686;2023-02-08T05:05:04;102516.53;;;-2.00;55.40
63343;BME280;49465;57.664;39.686;2023-02-08T05:07:35;102511.59;;;-1.92;55.14
63343;BME280;49465;57.664;39.686;2023-02-08T05:10:08;102509.00;;;-2.30;55.65
63343;BME280;49465;57.664;39.686;2023-02-08T05:12:40;102505.44;;;-2.70;57.57
63343;BME280;49465;57.664;39.686;2023-02-08T05:15:12;102512.03;;;-2.10;56.10
63343;BME280;49465;57.664;39.686;2023-02-08T05:17:44;102498.84;;;-2.59;57.74
63343;BME280;49465;57.664;39.686;2023-02-08T05:20:13;102507.81;;;-2.45;57.13
63343;BME280;49465;57.664;39.686;2023-02-08T05:22:42;102504.84;;;-2.25;56.00
63343;BME280;49465;57.664;39.686;2023-02-08T05:25:12;102496.91;;;-1.96;55.79
63343;BME280;49465;57.664;39.686;2023-02-08T05:27:43;102497.88;;;-1.93;55.46
63343;BME280;49465;57.664;39.686;2023-02-08T05:30:15;102491.78;;;-2.34;56.63
63343;BME280;49465;57.664;39.686;2023-02-08T05:32:49;102498.72;;;-2.65;57.96
63343;BME280;49465;57.664;39.686;2023-02-08T05:35:21;102497.38;;;-2.14;56.08
63343;BME280;49465;57.664;39.686;2023-02-08T05:37:56;102501.28;;;-2.30;56.38
63343;BME280;49465;57.664;39.686;2023-02-08T05:40:27;102511.00;;;-2.53;57.17
63343;BME280;49465;57.664;39.686;2023-02-08T05:43:23;102497.53;;;-2.45;57.36
63343;BME280;49465;57.664;39.686;2023-02-08T05:46:02;102500.09;;;-2.08;56.49
63343;BME280;49465;57.664;39.686;2023-02-08T05:48:35;102508.06;;;-1.97;55.54
63343;BME280;49465;57.664;39.686;2023-02-08T05:51:04;102510.63;;;-2.34;56.93
63343;BME280;49465;57.664;39.686;2023-02-08T05:53:36;102505.66;;;-2.61;58.08
63343;BME280;49465;57.664;39.686;2023-02-08T05:56:06;102495.84;;;-2.43;57.12
63343;BME280;49465;57.664;39.686;2023-02-08T05:58:50;102502.66;;;-2.45;57.68
63343;BME280;49465;57.664;39.686;2023-02-08T06:01:23;102496.38;;;-2.21;57.27
63343;BME280;49465;57.664;39.686;2023-02-08T06:03:57;102499.03;;;-2.16;56.94
63343;BME280;49465;57.664;39.686;2023-02-08T06:06:29;102488.28;;;-2.36;57.88
63343;BME280;49465;57.664;39.686;2023-02-08T06:09:01;102490.34;;;-2.22;57.31
63343;BME280;49465;57.664;39.686;2023-02-08T06:11:35;102493.84;;;-2.18;57.21
63343;BME280;49465;57.664;39.686;2023-02-08T06:14:07;102498.16;;;-2.53;58.37
63343;BME280;49465;57.664;39.686;2023-02-08T06:16:39;102483.88;;;-2.06;57.24
63343;BME280;49465;57.664;39.686;2023-02-08T06:19:09;102491.66;;;-2.39;57.96
63343;BME280;49465;57.664;39.686;2023-02-08T06:21:41;102481.44;;;-2.36;58.26
63343;BME280;49465;57.664;39.686;2023-02-08T06:24:16;102487.19;;;-2.10;57.32
63343;BME280;49465;57.664;39.686;2023-02-08T06:26:53;102474.06;;;-2.57;59.31
63343;BME280;49465;57.664;39.686;2023-02-08T06:29:31;102476.72;;;-2.54;58.87
63343;BME280;49465;57.664;39.686;2023-02-08T06:32:03;102466.94;;;-2.34;58.15
63343;BME280;49465;57.664;39.686;2023-02-08T06:34:32;102471.13;;;-2.01;57.77
63343;BME280;49465;57.664;39.686;2023-02-08T06:37:01;102471.16;;;-2.36;59.02
63343;BME280;49465;57.664;39.686;2023-02-08T06:39:38;102460.78;;;-1.63;56.43
63343;BME280;49465;57.664;39.686;2023-02-08T06:42:16;102458.66;;;-1.83;56.96
63343;BME280;49465;57.664;39.686;2023-02-08T06:44:45;102448.09;;;-2.34;59.13
63343;BME280;49465;57.664;39.686;2023-02-08T06:47:15;102440.69;;;-2.21;58.23
63343;BME280;49465;57.664;39.686;2023-02-08T06:49:52;102454.69;;;-2.08;58.09
63343;BME280;49465;57.664;39.686;2023-02-08T06:52:22;102446.69;;;-1.81;57.09
63343;BME280;49465;57.664;39.686;2023-02-08T06:55:00;102460.44;;;-1.80;57.07
63343;BME280;49465;57.664;39.686;2023-02-08T06:57:41;102457.31;;;-2.05;57.81
63343;BME280;49465;57.664;39.686;2023-02-08T07:00:13;102455.66;;;-1.62;56.82
63343;BME280;49465;57.664;39.686;2023-02-08T07:02:45;102451.63;;;-1.91;57.27
63343;BME280;49465;57.664;39.686;2023-02-08T07:05:19;102454.66;;;-1.70;56.94
63343;BME280;49465;57.664;39.686;2023-02-08T07:07:51;102443.22;;;-1.84;57.70
63343;BME280;49465;57.664;39.686;2023-02-08T07:10:25;102435.50;;;-1.83;58.12
63343;BME280;49465;57.664;39.686;2023-02-08T07:12:57;102435.53;;;-1.81;57.59
63343;BME280;49465;57.664;39.686;2023-02-08T07:15:26;102431.63;;;-1.64;57.19
63343;BME280;49465;57.664;39.686;2023-02-08T07:17:58;102423.16;;;-1.58;57.26
63343;BME280;49465;57.664;39.686;2023-02-08T07:20:30;102425.22;;;-1.84;57.89
63343;BME280;49465;57.664;39.686;2023-02-08T07:23:02;102414.50;;;-1.62;57.31
63343;BME280;49465;57.664;39.686;2023-02-08T07:25:39;102408.66;;;-1.54;57.25
63343;BME280;49465;57.664;39.686;2023-02-08T07:28:09;102405.75;;;-1.71;58.17
63343;BME280;49465;57.664;39.686;2023-02-08T07:30:49;102406.09;;;-1.95;58.81
63343;BME280;49465;57.664;39.686;2023-02-08T07:33:19;102416.19;;;-1.64;57.89
63343;BME280;49465;57.664;39.686;2023-02-08T07:35:54;102428.53;;;-1.90;59.10
63343;BME280;49465;57.664;39.686;2023-02-08T07:38:26;102420.56;;;-1.60;58.38
63343;BME280;49465;57.664;39.686;2023-02-08T07:41:13;102425.53;;;-1.67;59.18
63343;BME280;49465;57.664;39.686;2023-02-08T07:43:47;102434.22;;;-1.62;58.56
63343;BME280;49465;57.664;39.686;2023-02-08T07:46:22;102421.38;;;-1.62;58.96
63343;BME280;49465;57.664;39.686;2023-02-08T07:48:51;102438.53;;;-1.61;59.22
63343;BME280;49465;57.664;39.686;2023-02-08T07:51:23;102432.25;;;-1.31;58.42
63343;BME280;49465;57.664;39.686;2023-02-08T07:54:00;102429.88;;;-1.66;59.19
63343;BME280;49465;57.664;39.686;2023-02-08T07:56:35;102426.34;;;-1.27;58.09
63343;BME280;49465;57.664;39.686;2023-02-08T07:59:07;102427.72;;;-1.43;58.31
63343;BME280;49465;57.664;39.686;2023-02-08T08:01:39;102422.88;;;-1.29;57.79
63343;BME280;49465;57.664;39.686;2023-02-08T08:04:27;102418.19;;;-1.03;57.73
63343;BME280;49465;57.664;39.686;2023-02-08T08:06:59;102421.31;;;-1.20;58.40
63343;BME280;49465;57.664;39.686;2023-02-08T08:09:39;102407.09;;;-1.46;59.26
63343;BME280;49465;57.664;39.686;2023-02-08T08:12:14;102415.06;;;-0.84;57.56
63343;BME280;49465;57.664;39.686;2023-02-08T08:14:55;102401.22;;;-0.90;58.05
63343;BME280;49465;57.664;39.686;2023-02-08T08:17:30;102406.34;;;-1.41;58.91
63343;BME280;49465;57.664;39.686;2023-02-08T08:20:08;102417.16;;;-1.13;58.11
63343;BME280;49465;57.664;39.686;2023-02-08T08:22:46;102410.50;;;-1.00;57.62
63343;BME280;49465;57.664;39.686;2023-02-08T08:25:21;102414.75;;;-1.04;57.76
63343;BME280;49465;57.664;39.686;2023-02-08T08:27:56;102410.19;;;-0.67;57.25
63343;BME280;49465;57.664;39.686;2023-02-08T08:30:26;102404.81;;;-0.82;57.61
63343;BME280;49465;57.664;39.686;2023-02-08T08:33:03;102408.56;;;-1.12;58.04
63343;BME280;49465;57.664;39.686;2023-02-08T08:35:37;102403.00;;;-0.30;55.97
63343;BME280;49465;57.664;39.686;2023-02-08T08:38:12;102393.47;;;-0.35;56.62
63343;BME280;49465;57.664;39.686;2023-02-08T08:40:49;102404.72;;;-0.87;57.56
63343;BME280;49465;57.664;39.686;2023-02-08T08:43:18;102404.34;;;-0.56;56.90
63343;BME280;49465;57.664;39.686;2023-02-08T08:45:51;102400.25;;;-0.97;58.20
63343;BME280;49465;57.664;39.686;2023-02-08T08:48:30;102399.97;;;-0.62;57.63
63343;BME280;49465;57.664;39.686;2023-02-08T08:51:12;102389.31;;;-0.84;58.07
63343;BME280;49465;57.664;39.686;2023-02-08T08:53:49;102398.50;;;-1.00;58.10
63343;BME280;49465;57.664;39.686;2023-02-08T08:56:30;102384.47;;;-0.64;57.91
63343;BME280;49465;57.664;39.686;2023-02-08T08:59:07;102382.75;;;-0.65;58.15
63343;BME280;49465;57.664;39.686;2023-02-08T09:01:36;102386.53;;;-0.94;57.96
63343;BME280;49465;57.664;39.686;2023-02-08T09:04:13;102391.00;;;-0.86;58.36
63343;BME280;49465;57.664;39.686;2023-02-08T09:06:49;102384.94;;;-0.33;57.16
63343;BME280;49465;57.664;39.686;2023-02-08T09:09:27;102387.66;;;-0.80;58.12
63343;BME280;49465;57.664;39.686;2023-02-08T09:12:11;102385.09;;;-0.80;57.77
63343;BME280;49465;57.664;39.686;2023-02-08T09:14:45;102388.50;;;-0.81;58.28
63343;BME280;49465;57.664;39.686;2023-02-08T09:17:20;102390.16;;;-0.85;58.30
63343;BME280;49465;57.664;39.686;2023-02-08T09:19:51;102394.53;;;-0.79;57.72
63343;BME280;49465;57.664;39.686;2023-02-08T09:22:39;102389.13;;;-0.40;58.14
63343;BME280;49465;57.664;39.686;2023-02-08T09:25:16;102401.69;;;-0.61;57.38
63343;BME280;49465;57.664;39.686;2023-02-08T09:27:48;102406.63;;;-0.75;58.13
63343;BME280;49465;57.664;39.686;2023-02-08T09:30:23;102406.88;;;0.02;56.54
63343;BME280;49465;57.664;39.686;2023-02-08T09:33:01;102402.06;;;-0.36;57.28
63343;BME280;49465;57.664;39.686;2023-02-08T09:35:33;102396.47;;;-0.66;57.90
63343;BME280;49465;57.664;39.686;2023-02-08T09:38:18;102390.91;;;-0.37;57.62
63343;BME280;49465;57.664;39.686;2023-02-08T09:46:45;102367.59;;;-0.45;57.97
63343;BME280;49465;57.664;39.686;2023-02-08T09:52:32;102374.50;;;-0.41;57.60
63343;BME280;49465;57.664;39.686;2023-02-08T09:58:35;102366.28;;;-0.15;57.52
63343;BME280;49465;57.664;39.686;2023-02-08T10:01:03;102359.97;;;-0.35;57.39
63343;BME280;49465;57.664;39.686;2023-02-08T10:06:45;102345.44;;;-0.30;57.42
63343;BME280;49465;57.664;39.686;2023-02-08T10:09:14;102352.50;;;-0.17;57.30
63343;BME280;49465;57.664;39.686;2023-02-08T10:23:25;102353.63;;;0.07;57.62
63343;BME280;49465;57.664;39.686;2023-02-08T10:28:57;102360.00;;;0.36;56.50
63343;BME280;49465;57.664;39.686;2023-02-08T10:31:35;102352.59;;;0.70;55.95
63343;BME280;49465;57.664;39.686;2023-02-08T10:37:14;102346.91;;;0.21;57.05
63343;BME280;49465;57.664;39.686;2023-02-08T10:39:53;102339.88;;;0.06;57.33
63343;BME280;49465;57.664;39.686;2023-02-08T10:42:30;102328.84;;;0.21;56.54
63343;BME280;49465;57.664;39.686;2023-02-08T10:45:07;102329.69;;;0.18;56.70
63343;BME280;49465;57.664;39.686;2023-02-08T10:47:57;102327.88;;;0.08;56.79
63343;BME280;49465;57.664;39.686;2023-02-08T10:50:48;102331.00;;;0.62;56.06
63343;BME280;49465;57.664;39.686;2023-02-08T10:53:19;102320.34;;;0.28;56.38
63343;BME280;49465;57.664;39.686;2023-02-08T10:55:54;102325.81;;;0.57;55.96
63343;BME280;49465;57.664;39.686;2023-02-08T10:58:24;102322.16;;;0.38;56.34
63343;BME280;49465;57.664;39.686;2023-02-08T11:00:58;102331.69;;;0.44;56.05
63343;BME280;49465;57.664;39.686;2023-02-08T11:03:30;102333.47;;;0.53;55.78
63343;BME280;49465;57.664;39.686;2023-02-08T11:06:02;102323.13;;;0.48;56.00
63343;BME280;49465;57.664;39.686;2023-02-08T11:08:54;102316.47;;;0.72;55.89
63343;BME280;49465;57.664;39.686;2023-02-08T11:11:38;102317.00;;;0.35;56.49
63343;BME280;49465;57.664;39.686;2023-02-08T11:14:36;102308.78;;;0.79;56.15
63343;BME280;49465;57.664;39.686;2023-02-08T11:17:25;102301.06;;;0.86;55.75
63343;BME280;49465;57.664;39.686;2023-02-08T11:19:59;102309.50;;;0.63;55.73
63343;BME280;49465;57.664;39.686;2023-02-08T11:22:33;102300.78;;;0.50;56.31
63343;BME280;49465;57.664;39.686;2023-02-08T11:25:40;102306.25;;;0.87;56.23
63343;BME280;49465;57.664;39.686;2023-02-08T11:28:24;102301.13;;;0.90;55.77
63343;BME280;49465;57.664;39.686;2023-02-08T11:31:00;102297.59;;;0.79;55.88
63343;BME280;49465;57.664;39.686;2023-02-08T11:33:33;102291.50;;;0.71;55.69
63343;BME280;49465;57.664;39.686;2023-02-08T11:36:07;102293.88;;;0.48;56.56
63343;BME280;49465;57.664;39.686;2023-02-08T11:38:42;102291.44;;;0.66;56.38
63343;BME280;49465;57.664;39.686;2023-02-08T11:41:21;102287.25;;;0.79;56.04
63343;BME280;49465;57.664;39.686;2023-02-08T11:44:04;102289.72;;;0.65;56.31
63343;BME280;49465;57.664;39.686;2023-02-08T11:46:35;102290.72;;;0.81;55.83
63343;BME280;49465;57.664;39.686;2023-02-08T11:49:25;102290.69;;;0.75;56.59
63343;BME280;49465;57.664;39.686;2023-02-08T11:51:56;102289.78;;;0.73;55.97
63343;BME280;49465;57.664;39.686;2023-02-08T11:54:39;102287.22;;;0.76;56.40
63343;BME280;49465;57.664;39.686;2023-02-08T11:57:18;102291.94;;;1.32;55.34
63343;BME280;49465;57.664;39.686;2023-02-08T12:00:19;102283.94;;;0.97;56.14
63343;BME280;49465;57.664;39.686;2023-02-08T12:03:15;102282.09;;;0.79;56.20
63343;BME280;49465;57.664;39.686;2023-02-08T12:08:36;102279.63;;;0.94;55.12
63343;BME280;49465;57.664;39.686;2023-02-08T12:22:36;102258.09;;;0.94;55.74
63343;BME280;49465;57.664;39.686;2023-02-08T12:25:21;102258.84;;;0.79;56.01
63343;BME280;49465;57.664;39.686;2023-02-08T12:28:11;102240.91;;;1.01;55.87
63343;BME280;49465;57.664;39.686;2023-02-08T12:30:45;102246.09;;;1.04;55.35
63343;BME280;49465;57.664;39.686;2023-02-08T12:33:44;102244.34;;;0.96;55.80
63343;BME280;49465;57.664;39.686;2023-02-08T12:52:16;102261.66;;;1.08;54.87
63343;BME280;49465;57.664;39.686;2023-02-08T12:57:47;102259.88;;;1.01;55.52
63343;BME280;49465;57.664;39.686;2023-02-08T13:00:26;102262.41;;;0.98;55.17
63343;BME280;49465;57.664;39.686;2023-02-08T13:06:24;102252.13;;;1.06;55.16
63343;BME280;49465;57.664;39.686;2023-02-08T13:09:18;102247.91;;;1.17;55.57
63343;BME280;49465;57.664;39.686;2023-02-08T13:12:11;102249.72;;;1.33;54.82
63343;BME280;49465;57.664;39.686;2023-02-08T13:14:46;102263.38;;;1.11;55.01
63343;BME280;49465;57.664;39.686;2023-02-08T13:18:13;102261.59;;;1.02;55.43
63343;BME280;49465;57.664;39.686;2023-02-08T13:23:27;102265.91;;;1.03;55.59
63343;BME280;49465;57.664;39.686;2023-02-08T13:26:23;102274.53;;;1.02;55.06
63343;BME280;49465;57.664;39.686;2023-02-08T13:29:05;102271.94;;;1.01;55.61
63343;BME280;49465;57.664;39.686;2023-02-08T13:31:40;102278.84;;;1.05;55.05
63343;BME280;49465;57.664;39.686;2023-02-08T13:34:23;102274.50;;;0.99;55.47
63343;BME280;49465;57.664;39.686;2023-02-08T13:37:02;102272.78;;;1.01;54.78
63343;BME280;49465;57.664;39.686;2023-02-08T13:39:41;102279.69;;;1.02;55.00
63343;BME280;49465;57.664;39.686;2023-02-08T13:43:05;102289.41;;;1.45;54.49
63343;BME280;49465;57.664;39.686;2023-02-08T13:45:52;102289.91;;;0.87;55.48
63343;BME280;49465;57.664;39.686;2023-02-08T13:48:41;102290.03;;;1.05;55.16
63343;BME280;49465;57.664;39.686;2023-02-08T13:51:49;102289.16;;;1.00;55.29
63343;BME280;49465;57.664;39.686;2023-02-08T13:54:18;102288.91;;;0.72;55.61
63343;BME280;49465;57.664;39.686;2023-02-08T13:56:51;102295.88;;;0.81;55.61
63343;BME280;49465;57.664;39.686;2023-02-08T13:59:38;102291.78;;;1.09;55.31
63343;BME280;49465;57.664;39.686;2023-02-08T14:02:22;102295.19;;;1.02;55.44
63343;BME280;49465;57.664;39.686;2023-02-08T14:08:04;102296.94;;;1.09;54.60
63343;BME280;49465;57.664;39.686;2023-02-08T14:10:40;102296.84;;;0.95;55.25
63343;BME280;49465;57.664;39.686;2023-02-08T14:13:30;102294.41;;;1.12;55.10
63343;BME280;49465;57.664;39.686;2023-02-08T14:16:32;102291.88;;;1.25;54.33
63343;BME280;49465;57.664;39.686;2023-02-08T14:21:57;102287.75;;;1.57;53.76
63343;BME280;49465;57.664;39.686;2023-02-08T14:27:35;102298.09;;;1.61;53.86
63343;BME280;49465;57.664;39.686;2023-02-08T14:30:22;102307.25;;;1.03;54.71
63343;BME280;49465;57.664;39.686;2023-02-08T14:35:41;102292.59;;;1.01;54.76
63343;BME280;49465;57.664;39.686;2023-02-08T14:41:06;102298.44;;;0.79;55.25
63343;BME280;49465;57.664;39.686;2023-02-08T14:43:47;102295.19;;;1.02;54.34
63343;BME280;49465;57.664;39.686;2023-02-08T14:52:03;102291.63;;;0.85;55.38
63343;BME280;49465;57.664;39.686;2023-02-08T14:54:58;102277.81;;;0.83;55.54
63343;BME280;49465;57.664;39.686;2023-02-08T14:57:44;102287.31;;;0.85;54.78
63343;BME280;49465;57.664;39.686;2023-02-08T15:00:33;102274.41;;;0.90;55.53
63343;BME280;49465;57.664;39.686;2023-02-08T15:03:17;102270.94;;;0.85;55.15
63343;BME280;49465;57.664;39.686;2023-02-08T15:08:52;102257.97;;;0.77;55.41
63343;BME280;49465;57.664;39.686;2023-02-08T15:11:29;102263.09;;;0.71;55.69
63343;BME280;49465;57.664;39.686;2023-02-08T15:14:02;102253.66;;;0.76;55.43
63343;BME280;49465;57.664;39.686;2023-02-08T15:16:50;102257.31;;;1.07;54.71
63343;BME280;49465;57.664;39.686;2023-02-08T15:19:33;102256.47;;;1.07;54.85
63343;BME280;49465;57.664;39.686;2023-02-08T15:22:34;102247.81;;;0.98;55.08
63343;BME280;49465;57.664;39.686;2023-02-08T15:25:24;102242.56;;;0.89;54.77
63343;BME280;49465;57.664;39.686;2023-02-08T15:27:54;102246.75;;;0.73;55.29
63343;BME280;49465;57.664;39.686;2023-02-08T15:32:52;102237.09;;;0.49;55.60
63343;BME280;49465;57.664;39.686;2023-02-08T15:35:20;102244.84;;;0.51;55.45
63343;BME280;49465;57.664;39.686;2023-02-08T15:37:52;102238.06;;;0.62;55.25
63343;BME280;49465;57.664;39.686;2023-02-08T15:40:29;102238.22;;;0.85;55.15
63343;BME280;49465;57.664;39.686;2023-02-08T15:43:11;102242.50;;;0.80;55.31
63343;BME280;49465;57.664;39.686;2023-02-08T15:45:40;102249.28;;;0.66;55.41